Time;durP1;ratioP1;P1;durP2;ratioP2;P2;SDS_P1;SDS_P2;PMS_P1;PMS_P2;Temp;Humidity;BMP_temperature;BMP_pressure;BME280_temperature;BME280_humidity;BME280_pressure;Samples;Min_cycle;Max_cycle;Signal;HPM_P1;HPM_P2
2023/07/16 00:02:23;;;;;;;27.03;1.57;;;;;;;27.00;54.14;98818.09;7309498;19;129409;-39
2023/07/16 00:04:48;;;;;;;37.97;2.10;;;;;;;26.99;53.64;98832.31;7312402;19;130303;-41
2023/07/16 00:07:14;;;;;;;56.67;3.40;;;;;;;26.97;53.96;98824.59;7311213;19;129040;-39
2023/07/16 00:09:39;;;;;;;29.33;1.73;;;;;;;27.01;54.00;98832.94;7310573;19;129158;-39
2023/07/16 00:12:05;;;;;;;49.27;2.77;;;;;;;26.93;54.29;98834.69;7308586;19;129484;-37
2023/07/16 00:14:30;;;;;;;41.57;2.33;;;;;;;26.60;50.55;98843.31;7311427;19;129208;-38
2023/07/16 00:16:55;;;;;;;47.50;2.57;;;;;;;26.45;50.45;98859.22;7312841;19;129052;-38
2023/07/16 00:19:21;;;;;;;24.10;1.50;;;;;;;26.40;49.80;98874.78;7312207;19;130227;-39
2023/07/16 00:21:46;;;;;;;11.30;0.83;;;;;;;26.68;53.32;98909.13;7310706;19;129501;-39
2023/07/16 00:24:11;;;;;;;81.47;4.73;;;;;;;26.84;53.02;99009.13;7311127;19;129417;-38
2023/07/16 00:26:37;;;;;;;26.27;1.57;;;;;;;26.91;53.04;99013.47;7313634;19;129527;-37
2023/07/16 00:29:02;;;;;;;24.30;1.43;;;;;;;26.96;53.58;99006.81;7310066;19;128793;-40
2023/07/16 00:31:27;;;;;;;24.30;1.40;;;;;;;26.99;53.45;99032.81;7309569;19;131434;-36
2023/07/16 00:33:53;;;;;;;38.50;2.27;;;;;;;26.99;54.08;99030.97;7311791;19;129136;-39
2023/07/16 00:36:18;;;;;;;62.60;3.57;;;;;;;27.01;53.93;99041.38;7311777;19;128968;-37
2023/07/16 00:38:45;;;;;;;40.53;2.30;;;;;;;27.02;54.23;99066.75;7310542;19;129182;-40
2023/07/16 00:41:13;;;;;;;43.35;2.63;;;;;;;27.02;53.89;99066.75;7310015;19;130257;-39
2023/07/16 00:43:38;;;;;;;40.80;2.25;;;;;;;27.03;53.65;99065.72;7312459;19;130440;-39
2023/07/16 00:46:04;;;;;;;25.27;1.63;;;;;;;27.04;53.96;99072.66;7312274;19;129342;-37
2023/07/16 00:48:29;;;;;;;26.03;1.73;;;;;;;27.03;53.91;99092.13;7310062;19;128959;-38
2023/07/16 00:50:55;;;;;;;41.63;2.27;;;;;;;26.70;50.44;99092.56;7311360;19;129706;-38
2023/07/16 00:53:21;;;;;;;73.70;4.35;;;;;;;26.46;49.93;99095.47;7310712;19;129278;-40
2023/07/16 00:55:47;;;;;;;15.77;1.05;;;;;;;26.45;49.18;99093.84;7312418;19;129715;-39
2023/07/16 00:58:12;;;;;;;17.83;1.03;;;;;;;26.61;53.00;99077.00;7310706;19;129000;-39
2023/07/16 01:00:40;;;;;;;58.03;3.37;;;;;;;26.83;53.65;99090.09;7309744;19;129373;-37
2023/07/16 01:03:13;;;;;;;38.78;2.42;;;;;;;26.96;53.67;99101.81;7311898;19;131267;-41
2023/07/16 01:05:57;;;;;;;29.02;1.73;;;;;;;27.00;53.98;99097.78;7310459;19;128790;-39
2023/07/16 01:08:38;;;;;;;40.42;2.63;;;;;;;27.02;54.47;99095.75;7309829;19;129197;-38
2023/07/16 01:11:04;;;;;;;27.02;1.58;;;;;;;27.02;53.69;99095.75;7314955;19;129694;-38
2023/07/16 01:13:30;;;;;;;42.40;2.70;;;;;;;27.05;54.26;99100.66;7316988;19;129676;-35
2023/07/16 01:15:55;;;;;;;27.23;1.53;;;;;;;26.95;53.69;99087.78;7316661;19;129077;-39
2023/07/16 01:18:21;;;;;;;54.47;3.23;;;;;;;27.05;53.44;99084.84;7316573;19;131167;-41
2023/07/16 01:20:46;;;;;;;25.13;1.50;;;;;;;27.06;53.80;99070.63;7316904;19;129175;-37
2023/07/16 01:23:17;;;;;;;22.37;1.37;;;;;;;27.06;54.49;99049.50;7317600;19;130245;-39
2023/07/16 01:26:02;;;;;;;36.47;2.10;;;;;;;27.05;54.24;99039.97;7316629;19;128881;-36
2023/07/16 01:28:33;;;;;;;75.97;4.35;;;;;;;26.90;51.36;99032.94;7314899;19;128976;-37
2023/07/16 01:30:58;;;;;;;36.58;2.00;;;;;;;26.56;49.79;99038.00;7315344;19;129460;-40
2023/07/16 01:33:25;;;;;;;42.70;2.63;;;;;;;26.40;49.73;99027.66;7316365;19;130420;-36
2023/07/16 01:35:51;;;;;;;10.73;0.80;;;;;;;26.58;53.29;99036.00;7317585;19;129414;-38
2023/07/16 01:38:18;;;;;;;42.03;2.27;;;;;;;26.83;53.43;99049.69;7316643;19;129213;-36
2023/07/16 01:40:44;;;;;;;31.45;1.88;;;;;;;26.92;53.87;99044.09;7316340;19;130208;-36
2023/07/16 01:43:09;;;;;;;33.80;2.10;;;;;;;26.98;53.52;98999.50;7316963;19;130418;-37
2023/07/16 01:45:35;;;;;;;60.70;3.60;;;;;;;27.02;54.02;98985.78;7316770;19;129316;-39
2023/07/16 01:48:11;;;;;;;71.63;3.73;;;;;;;27.03;53.83;98991.84;7317101;19;129206;-34
2023/07/16 01:50:37;;;;;;;57.80;3.20;;;;;;;27.03;53.86;99013.78;7313265;19;130962;-37
2023/07/16 01:53:02;;;;;;;62.37;3.50;;;;;;;26.98;53.44;99012.69;7316845;19;130989;-37
2023/07/16 01:55:27;;;;;;;28.13;1.53;;;;;;;27.06;54.07;99037.16;7315797;19;128921;-36
2023/07/16 01:57:53;;;;;;;21.13;1.30;;;;;;;27.07;53.79;99043.25;7313603;19;129600;-37
2023/07/16 02:00:18;;;;;;;43.47;2.40;;;;;;;27.08;54.22;99058.06;7315551;19;129109;-40
2023/07/16 02:02:43;;;;;;;60.47;3.63;;;;;;;26.99;54.17;99043.38;7315022;19;131320;-38
2023/07/16 02:05:09;;;;;;;25.10;1.47;;;;;;;27.03;52.36;99052.53;7316453;19;129372;-36
2023/07/16 02:07:35;;;;;;;59.80;3.47;;;;;;;26.58;50.04;99059.72;7314992;19;129478;-37
2023/07/16 02:10:00;;;;;;;52.13;3.37;;;;;;;26.44;49.63;99036.03;7313830;19;129248;-38
2023/07/16 02:12:25;;;;;;;30.93;1.83;;;;;;;26.47;53.57;98991.66;7313531;19;130086;-36
2023/07/16 02:14:51;;;;;;;42.23;2.63;;;;;;;26.81;53.36;99026.13;7315941;19;130272;-39
2023/07/16 02:17:16;;;;;;;43.70;2.40;;;;;;;26.92;53.10;99036.19;7315423;19;129632;-38
2023/07/16 02:19:41;;;;;;;39.60;2.63;;;;;;;26.97;53.22;99045.38;7315515;19;129066;-35
2023/07/16 02:22:07;;;;;;;25.63;1.53;;;;;;;27.01;53.69;99055.38;7310907;19;129655;-38
2023/07/16 02:24:33;;;;;;;23.88;1.42;;;;;;;27.04;53.84;99067.38;7315045;19;129660;-39
2023/07/16 02:26:58;;;;;;;57.43;3.27;;;;;;;27.06;53.65;99095.19;7314856;19;130051;-38
2023/07/16 02:29:23;;;;;;;35.50;2.03;;;;;;;27.07;54.16;99102.13;7315114;19;129043;-40
2023/07/16 02:31:49;;;;;;;46.57;2.93;;;;;;;27.08;54.13;99109.03;7312819;19;130325;-40
2023/07/16 02:34:14;;;;;;;33.87;1.93;;;;;;;27.10;53.88;99114.13;7315379;19;128914;-40
2023/07/16 02:36:39;;;;;;;40.37;2.40;;;;;;;27.03;53.46;99086.84;7314718;19;130381;-39
2023/07/16 02:39:05;;;;;;;24.70;1.60;;;;;;;27.10;53.61;99103.56;7314432;19;130859;-39
2023/07/16 02:41:30;;;;;;;28.10;1.70;;;;;;;27.09;54.08;99115.13;7313795;19;130396;-39
2023/07/16 02:44:05;;;;;;;68.47;4.20;;;;;;;26.71;51.54;99135.56;7314242;19;129212;-34
2023/07/16 02:46:30;;;;;;;40.42;2.25;;;;;;;26.39;49.98;99094.59;7315610;19;128833;-39
2023/07/16 02:48:56;;;;;;;31.80;1.73;;;;;;;26.47;50.04;99112.09;7314519;19;129513;-38
2023/07/16 02:51:21;;;;;;;24.27;1.47;;;;;;;26.78;52.83;99118.00;7315307;19;129573;-39
2023/07/16 02:53:47;;;;;;;38.40;2.10;;;;;;;26.92;53.25;99147.00;7317099;19;128914;-37
2023/07/16 02:56:12;;;;;;;41.83;2.37;;;;;;;27.01;53.28;99154.84;7317441;19;128802;-38
2023/07/16 02:58:37;;;;;;;24.20;1.53;;;;;;;27.05;53.04;99164.00;7314868;19;129020;-39
2023/07/16 03:01:03;;;;;;;65.37;3.87;;;;;;;27.07;53.49;99172.56;7313609;19;129365;-35
2023/07/16 03:03:29;;;;;;;39.50;2.13;;;;;;;27.06;54.03;99165.63;7315278;19;129438;-39
2023/07/16 03:05:54;;;;;;;48.20;2.83;;;;;;;27.10;54.05;99180.09;7314704;19;129307;-36
2023/07/16 03:08:19;;;;;;;24.13;1.60;;;;;;;27.08;54.09;99169.72;7314641;19;129568;-36
2023/07/16 03:10:45;;;;;;;16.73;1.23;;;;;;;27.10;53.45;99182.75;7312156;19;129212;-40
2023/07/16 03:13:10;;;;;;;74.13;4.23;;;;;;;27.10;53.77;99190.66;7313407;19;129116;-36
2023/07/16 03:15:35;;;;;;;33.57;1.90;;;;;;;27.11;53.78;99200.19;7312932;19;129347;-38
2023/07/16 03:18:01;;;;;;;41.87;2.63;;;;;;;27.10;54.02;99201.22;7313140;19;130233;-34
2023/07/16 03:20:26;;;;;;;26.53;1.57;;;;;;;27.11;53.81;99208.09;7314043;19;129592;-39
2023/07/16 03:22:52;;;;;;;46.03;2.70;;;;;;;26.66;50.44;99207.34;7314658;19;129384;-38
2023/07/16 03:25:17;;;;;;;27.73;1.70;;;;;;;26.52;50.51;99197.59;7313684;19;129569;-38
2023/07/16 03:27:42;;;;;;;29.60;1.67;;;;;;;26.47;49.47;99197.31;7313241;19;130058;-36
2023/07/16 03:30:08;;;;;;;67.90;3.93;;;;;;;26.79;53.39;99212.78;7311308;19;129935;-39
2023/07/16 03:32:33;;;;;;;43.53;2.30;;;;;;;26.91;53.76;99213.97;7314192;19;130202;-35
2023/07/16 03:34:59;;;;;;;23.93;1.40;;;;;;;27.03;53.49;99218.78;7313453;19;128945;-39
2023/07/16 03:37:24;;;;;;;26.67;1.57;;;;;;;27.05;53.29;99230.81;7312663;19;130148;-37
2023/07/16 03:39:49;;;;;;;29.50;1.87;;;;;;;27.08;53.18;99237.50;7313021;19;130351;-40
2023/07/16 03:42:15;;;;;;;66.23;3.93;;;;;;;27.10;53.66;99232.88;7310142;19;129420;-37
2023/07/16 03:44:40;;;;;;;26.77;1.57;;;;;;;27.10;53.66;99235.53;7314202;19;129748;-35
2023/07/16 03:47:05;;;;;;;40.67;2.43;;;;;;;27.11;53.68;99223.94;7311776;19;130535;-38
2023/07/16 03:49:31;;;;;;;41.50;2.33;;;;;;;27.04;53.68;99197.47;7311703;19;129715;-39
2023/07/16 03:51:56;;;;;;;32.47;1.73;;;;;;;27.10;54.22;99180.09;7311720;19;129701;-37
2023/07/16 03:54:22;;;;;;;55.70;3.33;;;;;;;27.12;53.92;99167.53;7312241;19;129656;-38
2023/07/16 03:56:47;;;;;;;26.10;1.57;;;;;;;27.12;54.46;99154.34;7312711;19;130020;-38
2023/07/16 03:59:12;;;;;;;59.80;3.40;;;;;;;27.12;54.35;99175.47;7310419;19;129322;-39
2023/07/16 04:01:38;;;;;;;36.57;1.97;;;;;;;26.73;50.04;99166.06;7311929;19;129901;-35
2023/07/16 04:04:03;;;;;;;34.70;1.90;;;;;;;26.47;50.23;99155.13;7311887;19;128858;-37
2023/07/16 04:06:28;;;;;;;58.67;3.77;;;;;;;26.47;49.99;99138.47;7311152;19;130226;-38
2023/07/16 04:08:54;;;;;;;37.17;2.00;;;;;;;26.70;53.35;99129.50;7312001;19;129294;-38
2023/07/16 04:11:19;;;;;;;29.37;1.70;;;;;;;26.83;53.42;99108.56;7311911;19;129410;-40
2023/07/16 04:13:44;;;;;;;9.03;0.60;;;;;;;27.00;53.55;99108.31;7312076;19;130367;-37
2023/07/16 04:16:10;;;;;;;40.37;2.37;;;;;;;27.06;53.63;99110.22;7312426;19;129416;-38
2023/07/16 04:18:35;;;;;;;74.93;4.17;;;;;;;27.08;53.65;99116.13;7311101;19;131204;-38
2023/07/16 04:21:00;;;;;;;23.30;1.43;;;;;;;27.05;53.71;99105.94;7312270;19;130733;-39
2023/07/16 04:23:26;;;;;;;18.73;1.13;;;;;;;27.10;54.05;99098.28;7312001;19;129402;-38
2023/07/16 04:25:53;;;;;;;47.30;2.67;;;;;;;27.11;53.82;99099.91;7311346;19;129382;-37
2023/07/16 04:28:18;;;;;;;39.17;2.17;;;;;;;27.11;53.93;99099.91;7311551;19;130056;-40
2023/07/16 04:30:44;;;;;;;52.70;3.17;;;;;;;27.12;54.10;99096.28;7308752;19;128813;-38
2023/07/16 04:33:10;;;;;;;28.67;1.63;;;;;;;27.12;53.77;99104.19;7311634;19;129165;-37
2023/07/16 04:35:35;;;;;;;35.90;2.00;;;;;;;27.12;54.50;99112.13;7311380;19;129539;-39
2023/07/16 04:38:00;;;;;;;27.63;1.67;;;;;;;27.13;54.45;99121.66;7310236;19;129112;-37
2023/07/16 04:40:26;;;;;;;30.93;1.83;;;;;;;26.73;51.05;99123.03;7310076;19;129754;-38
2023/07/16 04:42:51;;;;;;;73.17;4.17;;;;;;;26.45;50.03;99108.81;7309456;19;129240;-35
2023/07/16 04:45:16;;;;;;;48.13;2.57;;;;;;;26.46;49.23;99126.31;7308780;19;129467;-38
2023/07/16 04:47:42;;;;;;;31.87;1.73;;;;;;;26.79;53.00;99120.47;7311352;19;130204;-37
2023/07/16 04:50:07;;;;;;;45.90;2.77;;;;;;;26.94;53.55;99123.06;7310335;19;129217;-35
2023/07/16 04:52:33;;;;;;;38.97;2.17;;;;;;;27.03;53.14;99134.34;7311619;19;129187;-37
2023/07/16 04:54:58;;;;;;;68.77;3.97;;;;;;;27.06;53.59;99139.22;7311196;19;129745;-39
2023/07/16 04:57:23;;;;;;;30.03;1.83;;;;;;;27.09;53.66;99136.25;7311161;19;130707;-39
2023/07/16 04:59:49;;;;;;;13.67;0.80;;;;;;;27.10;53.39;99143.97;7311370;19;130194;-38
2023/07/16 05:02:16;;;;;;;74.17;4.17;;;;;;;27.12;53.79;99133.22;7307728;19;129398;-40
2023/07/16 05:04:43;;;;;;;36.50;1.95;;;;;;;27.05;53.79;99121.78;7310742;19;130204;-38
2023/07/16 05:07:09;;;;;;;78.43;4.85;;;;;;;27.12;53.51;99112.13;7307687;19;132075;-37
2023/07/16 05:09:35;;;;;;;27.60;1.63;;;;;;;27.14;54.36;99104.84;7309672;19;129743;-39
2023/07/16 05:12:00;;;;;;;32.10;1.80;;;;;;;27.13;53.69;99097.91;7307874;19;129133;-39
2023/07/16 05:14:27;;;;;;;69.33;4.13;;;;;;;27.13;53.74;99098.72;7309656;19;129492;-36
2023/07/16 05:16:53;;;;;;;30.55;1.77;;;;;;;27.13;54.10;99092.63;7311150;19;130513;-38
2023/07/16 05:19:18;;;;;;;53.17;3.20;;;;;;;26.63;49.78;99074.97;7308517;19;129349;-37
2023/07/16 05:21:43;;;;;;;15.73;1.03;;;;;;;26.56;50.79;99063.56;7308493;19;129396;-37
2023/07/16 05:24:09;;;;;;;48.97;2.70;;;;;;;26.55;50.86;99067.19;7309530;19;130714;-36
2023/07/16 05:26:34;;;;;;;60.37;3.57;;;;;;;26.84;53.65;99078.53;7310777;19;129305;-37
2023/07/16 05:28:59;;;;;;;35.57;2.03;;;;;;;26.98;53.46;99097.13;7309817;19;130074;-38
2023/07/16 05:31:25;;;;;;;35.37;2.00;;;;;;;27.04;53.47;99107.75;7308876;19;129042;-39
2023/07/16 05:33:50;;;;;;;39.67;2.37;;;;;;;27.08;53.57;99100.28;7309680;19;130519;-40
2023/07/16 05:36:15;;;;;;;28.20;1.67;;;;;;;27.09;53.44;99131.75;7309802;19;129801;-40
2023/07/16 05:38:41;;;;;;;35.10;2.37;;;;;;;27.12;54.01;99133.22;7307699;19;129215;-35
2023/07/16 05:41:06;;;;;;;69.10;3.57;;;;;;;27.13;53.84;99132.22;7308107;19;128798;-36
2023/07/16 05:43:32;;;;;;;30.60;1.70;;;;;;;27.13;53.40;99142.78;7309944;19;130725;-37
2023/07/16 05:45:58;;;;;;;57.45;3.40;;;;;;;27.13;53.88;99155.97;7309305;19;130525;-37
2023/07/16 05:48:24;;;;;;;20.83;1.20;;;;;;;27.14;53.84;99147.06;7309700;19;130627;-39
2023/07/16 05:50:49;;;;;;;54.80;2.97;;;;;;;27.06;53.99;99144.50;7307692;19;129907;-41
2023/07/16 05:53:15;;;;;;;31.30;1.93;;;;;;;27.14;54.09;99157.63;7310414;19;130280;-39
2023/07/16 05:55:40;;;;;;;53.80;3.30;;;;;;;27.01;51.85;99149.56;7309331;19;129310;-39
2023/07/16 05:58:06;;;;;;;56.17;3.27;;;;;;;26.61;50.32;99178.00;7314707;19;129329;-37
2023/07/16 06:00:31;;;;;;;31.07;1.87;;;;;;;26.52;50.03;99179.13;7316253;19;130607;-39
2023/07/16 06:02:57;;;;;;;22.53;1.30;;;;;;;26.59;52.75;99184.47;7316572;19;130284;-36
2023/07/16 06:05:22;;;;;;;28.47;1.67;;;;;;;26.89;53.01;99191.44;7315088;19;129542;-40
2023/07/16 06:07:48;;;;;;;41.17;2.33;;;;;;;27.02;53.68;99209.22;7315554;19;129661;-37
2023/07/16 06:10:13;;;;;;;78.60;4.30;;;;;;;27.08;53.61;99248.06;7315116;19;128947;-37
2023/07/16 06:12:38;;;;;;;25.10;1.50;;;;;;;27.10;53.29;99246.91;7315014;19;130212;-40
2023/07/16 06:15:04;;;;;;;24.07;1.33;;;;;;;27.13;53.49;99245.69;7316530;19;129153;-39
2023/07/16 06:17:32;;;;;;;53.40;3.03;;;;;;;27.12;54.03;99233.53;7312434;19;129385;-37
2023/07/16 06:19:58;;;;;;;28.63;1.60;;;;;;;27.16;53.81;99242.69;7316403;19;129218;-39
2023/07/16 06:22:23;;;;;;;64.23;3.83;;;;;;;27.15;53.82;99251.63;7311416;19;130468;-39
2023/07/16 06:24:48;;;;;;;27.20;1.70;;;;;;;27.17;53.70;99249.63;7315699;19;131103;-36
2023/07/16 06:27:14;;;;;;;50.97;3.00;;;;;;;27.16;53.80;99238.25;7315033;19;129834;-36
2023/07/16 06:29:39;;;;;;;49.90;3.10;;;;;;;27.17;53.46;99249.63;7313489;19;130765;-39
2023/07/16 06:32:05;;;;;;;27.10;1.50;;;;;;;27.17;53.91;99257.53;7312670;19;129299;-37
2023/07/16 06:34:30;;;;;;;31.02;1.77;;;;;;;26.79;50.15;99255.00;7314163;19;129215;-39
2023/07/16 06:36:56;;;;;;;49.57;2.70;;;;;;;26.56;49.51;99246.28;7315101;19;129245;-39
2023/07/16 06:39:21;;;;;;;29.47;1.63;;;;;;;26.46;49.56;99247.56;7315148;19;128780;-39
2023/07/16 06:41:47;;;;;;;68.53;3.90;;;;;;;26.72;53.06;99248.81;7312239;19;129448;-36
2023/07/16 06:44:12;;;;;;;26.43;1.50;;;;;;;26.92;53.28;99249.91;7315497;19;130493;-37
2023/07/16 06:46:37;;;;;;;41.83;2.37;;;;;;;27.04;53.55;99252.09;7315503;19;128974;-36
2023/07/16 06:49:06;;;;;;;8.33;0.67;;;;;;;27.09;53.46;99239.16;7315271;19;129039;-40
2023/07/16 06:51:32;;;;;;;27.45;1.70;;;;;;;27.11;53.31;99245.88;7312112;19;129680;-39
2023/07/16 06:53:57;;;;;;;63.25;3.80;;;;;;;27.14;53.71;99242.06;7314408;19;131030;-40
2023/07/16 06:56:22;;;;;;;41.53;2.27;;;;;;;27.15;53.63;99244.53;7315955;19;129280;-38
2023/07/16 06:58:48;;;;;;;22.40;1.27;;;;;;;27.16;53.42;99253.25;7315633;19;129417;-38
2023/07/16 07:01:14;;;;;;;22.60;1.30;;;;;;;27.07;53.80;99236.72;7312806;19;130977;-41
2023/07/16 07:03:39;;;;;;;37.92;2.13;;;;;;;27.16;53.92;99240.06;7315066;19;129731;-38
2023/07/16 07:06:05;;;;;;;67.63;4.03;;;;;;;27.18;53.84;99238.06;7314696;19;129016;-39
2023/07/16 07:08:30;;;;;;;28.07;1.63;;;;;;;27.17;54.16;99242.53;7313374;19;130472;-40
2023/07/16 07:10:57;;;;;;;6.80;0.60;;;;;;;27.17;53.95;99252.25;7312605;19;130131;-39
2023/07/16 07:13:24;;;;;;;36.28;2.00;;;;;;;26.73;50.23;99261.00;7313423;19;130215;-38
2023/07/16 07:15:49;;;;;;;33.97;1.95;;;;;;;26.55;50.23;99247.31;7313682;19;129673;-37
2023/07/16 07:18:14;;;;;;;48.67;2.93;;;;;;;26.52;49.51;99247.69;7312622;19;129150;-35
2023/07/16 07:20:40;;;;;;;25.93;1.57;;;;;;;26.78;52.99;99253.38;7313554;19;130273;-37
2023/07/16 07:23:06;;;;;;;63.93;3.67;;;;;;;26.97;53.32;99251.19;7312270;19;130355;-39
2023/07/16 07:25:31;;;;;;;28.00;1.63;;;;;;;27.06;52.96;99263.25;7314889;19;130266;-39
2023/07/16 07:27:57;;;;;;;49.37;3.00;;;;;;;27.09;53.56;99260.28;7313134;19;129744;-37
2023/07/16 07:30:22;;;;;;;41.57;2.47;;;;;;;27.06;53.20;99260.63;7311984;19;131031;-36
2023/07/16 07:32:48;;;;;;;46.50;2.57;;;;;;;27.15;53.60;99275.38;7313160;19;130353;-40
2023/07/16 07:35:13;;;;;;;36.40;2.17;;;;;;;27.11;53.81;99268.81;7313140;19;129425;-39
2023/07/16 07:37:38;;;;;;;25.20;1.50;;;;;;;27.17;53.24;99283.94;7312813;19;128832;-39
2023/07/16 07:40:04;;;;;;;23.77;1.40;;;;;;;27.09;53.74;99279.56;7313651;19;129156;-39
2023/07/16 07:42:30;;;;;;;89.90;4.87;;;;;;;27.16;53.79;99288.38;7309826;19;134155;-40
2023/07/16 07:44:55;;;;;;;68.10;3.90;;;;;;;27.17;54.10;99300.59;7312548;19;129477;-39
2023/07/16 07:47:21;;;;;;;35.67;2.37;;;;;;;27.17;54.16;99290.03;7312839;19;129393;-38
2023/07/16 07:49:46;;;;;;;27.47;1.63;;;;;;;27.18;53.90;99291.66;7312245;19;129058;-39
2023/07/16 07:52:12;;;;;;;43.60;2.47;;;;;;;26.71;49.96;99294.66;7310443;19;129185;-38
2023/07/16 07:54:37;;;;;;;39.70;2.33;;;;;;;26.55;50.03;99305.31;7313761;19;129721;-39
2023/07/16 07:57:04;;;;;;;42.27;2.47;;;;;;;26.56;49.28;99308.78;7312879;19;128826;-40
2023/07/16 07:59:30;;;;;;;64.30;3.65;;;;;;;26.81;53.69;99311.03;7311922;19;130721;-38
2023/07/16 08:01:55;;;;;;;30.07;1.73;;;;;;;26.98;53.36;99311.69;7310820;19;130398;-37
2023/07/16 08:04:21;;;;;;;22.67;1.40;;;;;;;27.07;52.99;99315.06;7313006;19;129154;-40
2023/07/16 08:06:46;;;;;;;24.73;1.43;;;;;;;27.03;53.03;99296.13;7312629;19;129383;-38
2023/07/16 08:09:11;;;;;;;36.53;2.10;;;;;;;27.14;53.96;99300.16;7313784;19;128935;-37
2023/07/16 08:11:37;;;;;;;34.43;1.93;;;;;;;27.15;53.48;99302.59;7311592;19;130575;-35
2023/07/16 08:14:02;;;;;;;23.60;1.37;;;;;;;27.16;53.70;99311.31;7313836;19;128984;-40
2023/07/16 08:16:27;;;;;;;24.90;1.37;;;;;;;27.08;53.66;99299.03;7312593;19;129134;-38
2023/07/16 08:18:53;;;;;;;70.73;4.13;;;;;;;27.19;53.92;99303.06;7310569;19;130223;-36
2023/07/16 08:21:19;;;;;;;17.07;1.10;;;;;;;27.19;54.07;99298.56;7307857;19;130325;-40
2023/07/16 08:23:47;;;;;;;51.55;3.13;;;;;;;27.19;54.23;99295.13;7311407;19;129087;-39
2023/07/16 08:26:12;;;;;;;24.85;1.50;;;;;;;27.18;54.25;99306.69;7311989;19;128996;-38
2023/07/16 08:28:38;;;;;;;52.97;2.77;;;;;;;27.09;51.22;99313.88;7311187;19;130217;-39
2023/07/16 08:31:03;;;;;;;28.00;1.57;;;;;;;26.68;49.66;99316.09;7309602;19;130331;-36
2023/07/16 08:33:28;;;;;;;20.90;1.20;;;;;;;26.61;50.00;99325.69;7311408;19;129066;-38
2023/07/16 08:35:54;;;;;;;70.93;4.27;;;;;;;26.55;53.12;99321.16;7309367;19;129015;-37
2023/07/16 08:38:19;;;;;;;59.30;3.03;;;;;;;26.93;53.05;99340.44;7311171;19;129277;-34
2023/07/16 08:40:47;;;;;;;24.90;1.47;;;;;;;27.05;53.36;99335.53;7311755;19;130342;-37
2023/07/16 08:43:15;;;;;;;37.42;2.00;;;;;;;27.08;53.40;99345.72;7310481;19;128917;-39
2023/07/16 08:45:42;;;;;;;12.73;0.77;;;;;;;27.11;53.15;99329.50;7311290;19;128899;-38
2023/07/16 08:48:08;;;;;;;55.38;3.20;;;;;;;27.13;53.38;99330.16;7309128;19;130524;-40
2023/07/16 08:50:39;;;;;;;29.90;1.70;;;;;;;27.15;53.82;99336.09;7310690;19;130260;-36
2023/07/16 08:53:05;;;;;;;55.58;3.53;;;;;;;27.09;53.74;99328.91;7309677;19;128963;-39
2023/07/16 08:55:31;;;;;;;26.67;1.50;;;;;;;27.18;53.79;99338.34;7312078;19;129282;-35
2023/07/16 08:57:57;;;;;;;49.60;2.70;;;;;;;27.17;53.56;99348.13;7310162;19;129168;-36
2023/07/16 09:00:27;;;;;;;29.83;1.70;;;;;;;27.18;53.64;99359.47;7311849;19;129881;-39
2023/07/16 09:02:53;;;;;;;30.02;1.83;;;;;;;27.18;53.95;99354.19;7311799;19;129453;-38
2023/07/16 09:05:21;;;;;;;34.90;2.03;;;;;;;27.19;53.76;99355.84;7310323;19;130157;-39
2023/07/16 09:07:46;;;;;;;48.85;2.75;;;;;;;26.67;50.16;99345.31;7311342;19;130092;-36
2023/07/16 09:10:12;;;;;;;54.17;3.23;;;;;;;26.62;49.38;99352.91;7310266;19;131295;-36
2023/07/16 09:12:45;;;;;;;27.17;1.57;;;;;;;26.50;51.42;99360.41;7311570;19;129240;-39
2023/07/16 09:15:13;;;;;;;46.83;2.88;;;;;;;26.87;53.48;99367.53;7309753;19;129054;-37
2023/07/16 09:17:38;;;;;;;41.80;2.35;;;;;;;27.03;53.74;99363.91;7309446;19;130144;-33
2023/07/16 09:20:06;;;;;;;43.60;2.37;;;;;;;27.10;52.93;99367.47;7310792;19;129558;-38
2023/07/16 09:22:33;;;;;;;26.75;1.50;;;;;;;27.12;53.66;99370.75;7310345;19;129502;-39
2023/07/16 09:25:00;;;;;;;26.73;1.55;;;;;;;27.13;53.67;99375.84;7310226;19;129372;-40
2023/07/16 09:27:29;;;;;;;69.80;4.05;;;;;;;27.16;54.16;99374.66;7308201;19;129661;-35
2023/07/16 09:29:54;;;;;;;38.67;2.22;;;;;;;27.16;54.03;99377.31;7309830;19;130208;-35
2023/07/16 09:32:20;;;;;;;61.43;3.77;;;;;;;27.18;54.18;99364.75;7312443;19;129885;-40
2023/07/16 09:34:49;;;;;;;23.80;1.37;;;;;;;27.19;53.91;99369.84;7317457;19;128940;-36
2023/07/16 09:37:17;;;;;;;32.25;1.98;;;;;;;27.17;53.47;99369.22;7316798;19;129511;-40
2023/07/16 09:39:46;;;;;;;43.97;2.53;;;;;;;27.16;54.19;99361.47;7317230;19;130506;-40
2023/07/16 09:42:12;;;;;;;34.58;2.10;;;;;;;27.18;54.13;99372.66;7315859;19;129064;-36
2023/07/16 09:44:37;;;;;;;34.17;2.17;;;;;;;27.05;51.09;99369.84;7316794;19;129456;-37
2023/07/16 09:47:03;;;;;;;36.67;2.17;;;;;;;26.63;49.96;99368.53;7316909;19;130279;-40
2023/07/16 09:49:30;;;;;;;63.37;3.63;;;;;;;26.54;49.80;99364.31;7316358;19;129834;-37
2023/07/16 09:52:00;;;;;;;;;;;;;;;26.74;53.86;99360.22;7315825;19;128985;-40
2023/07/16 09:54:32;;;;;;;41.78;2.50;;;;;;;26.96;53.92;99360.38;7315443;19;129440;-34
2023/07/16 09:57:00;;;;;;;18.23;1.30;;;;;;;27.04;53.64;99353.16;7316050;19;130111;-40
2023/07/16 09:59:29;;;;;;;61.22;3.42;;;;;;;27.09;53.76;99363.22;7316147;19;131492;-36
2023/07/16 10:01:55;;;;;;;29.38;1.67;;;;;;;27.12;53.62;99370.75;7315113;19;130536;-39
2023/07/16 10:04:21;;;;;;;42.35;2.30;;;;;;;27.13;53.37;99361.84;7317200;19;129215;-39
2023/07/16 10:06:53;;;;;;;15.43;1.00;;;;;;;27.16;53.96;99372.03;7315275;19;129001;-37
2023/07/16 10:09:42;;;;;;;50.65;2.63;;;;;;;27.20;53.98;99373.31;7315418;19;130419;-37
2023/07/16 10:12:10;;;;;;;40.83;2.45;;;;;;;27.18;54.05;99364.75;7314381;19;129472;-36
2023/07/16 10:14:49;;;;;;;69.30;3.95;;;;;;;27.21;54.17;99380.22;7315761;19;128948;-36
2023/07/16 10:17:23;;;;;;;62.00;3.78;;;;;;;27.19;54.56;99388.31;7316175;19;129235;-40
2023/07/16 10:20:01;;;;;;;65.57;3.92;;;;;;;27.18;54.03;99378.78;7316148;19;130705;-37
2023/07/16 10:22:46;;;;;;;25.23;1.50;;;;;;;27.21;53.97;99375.78;7312545;19;129174;-36
2023/07/16 10:25:17;;;;;;;16.45;1.05;;;;;;;26.72;51.32;99379.88;7315920;19;130681;-39
2023/07/16 10:27:43;;;;;;;51.25;3.10;;;;;;;26.50;49.59;99373.59;7314713;19;129660;-37
2023/07/16 10:30:09;;;;;;;35.20;1.98;;;;;;;26.54;51.81;99382.75;7315651;19;129729;-36
2023/07/16 10:32:34;;;;;;;19.00;1.20;;;;;;;26.87;53.71;99378.91;7316330;19;128988;-40
2023/07/16 10:35:00;;;;;;;28.20;1.73;;;;;;;27.00;53.12;99374.81;7316245;19;129183;-37
2023/07/16 10:37:26;;;;;;;29.02;1.55;;;;;;;27.08;53.39;99385.31;7315855;19;129994;-40
2023/07/16 10:39:54;;;;;;;87.20;4.97;;;;;;;27.12;53.76;99391.88;7314577;19;130412;-37
2023/07/16 10:42:24;;;;;;;26.85;1.50;;;;;;;27.15;53.74;99392.34;7312023;19;129022;-37
2023/07/16 10:44:52;;;;;;;67.05;3.83;;;;;;;27.15;53.85;99388.88;7313078;19;128885;-36
2023/07/16 10:47:37;;;;;;;41.85;2.33;;;;;;;27.20;54.42;99387.34;7314488;19;130146;-37
2023/07/16 10:50:09;;;;;;;58.97;3.30;;;;;;;27.19;54.46;99392.81;7313585;19;130367;-39
2023/07/16 10:52:36;;;;;;;29.83;1.67;;;;;;;27.18;54.33;99386.69;7314037;19;129619;-35
2023/07/16 10:55:02;;;;;;;84.22;4.68;;;;;;;27.18;53.46;99385.88;7313947;19;129390;-36
2023/07/16 10:57:28;;;;;;;;;;;;;;;27.27;53.91;99384.78;7316450;19;130140;-38
2023/07/16 10:59:55;;;;;;;43.95;2.67;;;;;;;27.11;54.08;99371.75;7314559;19;130098;-40
2023/07/16 11:02:23;;;;;;;34.20;2.03;;;;;;;26.88;51.63;99391.09;7312631;19;130309;-37
2023/07/16 11:04:49;;;;;;;18.33;1.08;;;;;;;26.60;50.04;99394.44;7314434;19;129371;-41
2023/07/16 11:07:15;;;;;;;28.20;1.73;;;;;;;26.57;49.88;99393.00;7314192;19;130236;-39
2023/07/16 11:09:47;;;;;;;20.55;1.33;;;;;;;26.77;53.81;99391.53;7314802;19;129172;-40
2023/07/16 11:12:14;;;;;;;19.27;1.27;;;;;;;26.89;53.33;99376.09;7310649;19;129309;-38
2023/07/16 11:14:51;;;;;;;49.47;2.63;;;;;;;27.08;53.67;99385.31;7314627;19;129270;-39